sensor_id;sensor_type;location;lat;lon;timestamp;P1;durP1;ratioP1;P2;durP2;ratioP2
13228;SDS011;6680;53.220;10.402;2023-06-26T00:01:03;9.80;;;8.80;;
13228;SDS011;6680;53.220;10.402;2023-06-26T00:03:30;8.17;;;7.30;;
13228;SDS011;6680;53.220;10.402;2023-06-26T00:05:57;9.83;;;8.83;;
13228;SDS011;6680;53.220;10.402;2023-06-26T00:08:25;9.00;;;8.10;;
13228;SDS011;6680;53.220;10.402;2023-06-26T00:10:52;9.13;;;8.23;;
13228;SDS011;6680;53.220;10.402;2023-06-26T00:13:19;9.30;;;8.40;;
13228;SDS011;6680;53.220;10.402;2023-06-26T00:15:47;9.20;;;8.30;;
13228;SDS011;6680;53.220;10.402;2023-06-26T00:18:13;10.30;;;9.23;;
13228;SDS011;6680;53.220;10.402;2023-06-26T00:20:40;9.67;;;8.70;;
13228;SDS011;6680;53.220;10.402;2023-06-26T00:23:07;9.90;;;8.90;;
13228;SDS011;6680;53.220;10.402;2023-06-26T00:25:34;10.53;;;8.47;;
13228;SDS011;6680;53.220;10.402;2023-06-26T00:28:00;9.50;;;8.53;;
13228;SDS011;6680;53.220;10.402;2023-06-26T00:30:27;10.50;;;9.43;;
13228;SDS011;6680;53.220;10.402;2023-06-26T00:32:55;10.60;;;8.47;;
13228;SDS011;6680;53.220;10.402;2023-06-26T00:35:22;9.87;;;8.13;;
13228;SDS011;6680;53.220;10.402;2023-06-26T00:37:48;10.33;;;8.70;;
13228;SDS011;6680;53.220;10.402;2023-06-26T00:40:15;9.27;;;8.37;;
13228;SDS011;6680;53.220;10.402;2023-06-26T00:42:42;11.07;;;8.07;;
13228;SDS011;6680;53.220;10.402;2023-06-26T00:45:09;9.17;;;8.27;;
13228;SDS011;6680;53.220;10.402;2023-06-26T00:47:36;9.50;;;8.43;;
13228;SDS011;6680;53.220;10.402;2023-06-26T00:50:05;8.87;;;7.97;;
13228;SDS011;6680;53.220;10.402;2023-06-26T00:52:32;9.33;;;8.00;;
13228;SDS011;6680;53.220;10.402;2023-06-26T00:54:59;8.87;;;7.97;;
13228;SDS011;6680;53.220;10.402;2023-06-26T00:57:26;8.43;;;7.57;;
13228;SDS011;6680;53.220;10.402;2023-06-26T00:59:53;9.37;;;8.37;;
13228;SDS011;6680;53.220;10.402;2023-06-26T01:02:20;9.60;;;8.57;;
13228;SDS011;6680;53.220;10.402;2023-06-26T01:04:46;9.13;;;8.23;;
13228;SDS011;6680;53.220;10.402;2023-06-26T01:07:15;9.30;;;8.40;;
13228;SDS011;6680;53.220;10.402;2023-06-26T01:09:45;8.63;;;7.73;;
13228;SDS011;6680;53.220;10.402;2023-06-26T01:12:13;9.03;;;7.43;;
13228;SDS011;6680;53.220;10.402;2023-06-26T01:14:41;9.30;;;8.37;;
13228;SDS011;6680;53.220;10.402;2023-06-26T01:17:07;9.67;;;8.70;;
13228;SDS011;6680;53.220;10.402;2023-06-26T01:19:37;9.03;;;8.00;;
13228;SDS011;6680;53.220;10.402;2023-06-26T01:22:07;10.37;;;8.60;;
13228;SDS011;6680;53.220;10.402;2023-06-26T01:24:47;9.80;;;8.80;;
13228;SDS011;6680;53.220;10.402;2023-06-26T01:27:24;9.00;;;8.17;;
13228;SDS011;6680;53.220;10.402;2023-06-26T01:29:51;9.50;;;8.63;;
13228;SDS011;6680;53.220;10.402;2023-06-26T01:32:20;9.07;;;8.17;;
13228;SDS011;6680;53.220;10.402;2023-06-26T01:34:47;7.87;;;7.07;;
13228;SDS011;6680;53.220;10.402;2023-06-26T01:37:14;9.43;;;8.17;;
13228;SDS011;6680;53.220;10.402;2023-06-26T01:39:41;9.07;;;7.93;;
13228;SDS011;6680;53.220;10.402;2023-06-26T01:42:08;9.33;;;7.90;;
13228;SDS011;6680;53.220;10.402;2023-06-26T01:44:37;10.20;;;8.60;;
13228;SDS011;6680;53.220;10.402;2023-06-26T01:47:10;8.03;;;7.23;;
13228;SDS011;6680;53.220;10.402;2023-06-26T01:49:43;9.73;;;8.73;;
13228;SDS011;6680;53.220;10.402;2023-06-26T01:52:17;9.20;;;8.30;;
13228;SDS011;6680;53.220;10.402;2023-06-26T01:54:50;13.87;;;8.97;;
13228;SDS011;6680;53.220;10.402;2023-06-26T01:57:21;8.87;;;7.97;;
13228;SDS011;6680;53.220;10.402;2023-06-26T01:59:53;9.17;;;8.27;;
13228;SDS011;6680;53.220;10.402;2023-06-26T02:02:22;8.73;;;7.70;;
13228;SDS011;6680;53.220;10.402;2023-06-26T02:04:50;10.10;;;7.77;;
13228;SDS011;6680;53.220;10.402;2023-06-26T02:07:16;8.60;;;7.77;;
13228;SDS011;6680;53.220;10.402;2023-06-26T02:09:43;8.87;;;7.93;;
13228;SDS011;6680;53.220;10.402;2023-06-26T02:12:10;10.07;;;8.37;;
13228;SDS011;6680;53.220;10.402;2023-06-26T02:14:36;10.00;;;7.87;;
13228;SDS011;6680;53.220;10.402;2023-06-26T02:17:04;9.17;;;8.27;;
13228;SDS011;6680;53.220;10.402;2023-06-26T02:19:33;8.50;;;7.60;;
13228;SDS011;6680;53.220;10.402;2023-06-26T02:22:00;8.63;;;7.43;;
13228;SDS011;6680;53.220;10.402;2023-06-26T02:24:27;9.47;;;8.50;;
13228;SDS011;6680;53.220;10.402;2023-06-26T02:26:55;8.37;;;7.57;;
13228;SDS011;6680;53.220;10.402;2023-06-26T02:29:21;8.40;;;7.67;;
13228;SDS011;6680;53.220;10.402;2023-06-26T02:31:48;9.33;;;7.70;;
13228;SDS011;6680;53.220;10.402;2023-06-26T02:34:16;8.50;;;7.70;;
13228;SDS011;6680;53.220;10.402;2023-06-26T02:36:43;10.60;;;8.27;;
13228;SDS011;6680;53.220;10.402;2023-06-26T02:39:10;9.37;;;7.57;;
13228;SDS011;6680;53.220;10.402;2023-06-26T02:41:36;8.67;;;7.57;;
13228;SDS011;6680;53.220;10.402;2023-06-26T02:44:03;9.13;;;6.67;;
13228;SDS011;6680;53.220;10.402;2023-06-26T02:46:30;7.87;;;7.07;;
13228;SDS011;6680;53.220;10.402;2023-06-26T02:48:56;8.40;;;7.50;;
13228;SDS011;6680;53.220;10.402;2023-06-26T02:51:24;8.47;;;7.47;;
13228;SDS011;6680;53.220;10.402;2023-06-26T02:53:51;9.37;;;8.10;;
13228;SDS011;6680;53.220;10.402;2023-06-26T02:56:18;10.50;;;7.67;;
13228;SDS011;6680;53.220;10.402;2023-06-26T02:58:44;9.57;;;8.53;;
13228;SDS011;6680;53.220;10.402;2023-06-26T03:01:11;8.50;;;7.57;;
13228;SDS011;6680;53.220;10.402;2023-06-26T03:03:38;8.77;;;7.70;;
13228;SDS011;6680;53.220;10.402;2023-06-26T03:06:06;8.30;;;7.33;;
13228;SDS011;6680;53.220;10.402;2023-06-26T03:08:35;8.53;;;7.63;;
13228;SDS011;6680;53.220;10.402;2023-06-26T03:11:03;11.37;;;7.40;;
13228;SDS011;6680;53.220;10.402;2023-06-26T03:13:30;8.50;;;7.43;;
13228;SDS011;6680;53.220;10.402;2023-06-26T03:15:57;8.27;;;7.47;;
13228;SDS011;6680;53.220;10.402;2023-06-26T03:18:24;9.07;;;8.03;;
13228;SDS011;6680;53.220;10.402;2023-06-26T03:20:51;9.33;;;8.13;;
13228;SDS011;6680;53.220;10.402;2023-06-26T03:23:19;8.07;;;7.27;;
13228;SDS011;6680;53.220;10.402;2023-06-26T03:25:47;8.97;;;7.33;;
13228;SDS011;6680;53.220;10.402;2023-06-26T03:28:13;9.27;;;7.63;;
13228;SDS011;6680;53.220;10.402;2023-06-26T03:30:40;8.50;;;7.53;;
13228;SDS011;6680;53.220;10.402;2023-06-26T03:33:07;10.27;;;8.73;;
13228;SDS011;6680;53.220;10.402;2023-06-26T03:35:34;8.13;;;7.17;;
13228;SDS011;6680;53.220;10.402;2023-06-26T03:38:00;7.33;;;6.63;;
13228;SDS011;6680;53.220;10.402;2023-06-26T03:40:27;7.90;;;7.00;;
13228;SDS011;6680;53.220;10.402;2023-06-26T03:42:55;8.70;;;7.80;;
13228;SDS011;6680;53.220;10.402;2023-06-26T03:45:22;7.93;;;7.13;;
13228;SDS011;6680;53.220;10.402;2023-06-26T03:47:49;8.50;;;7.13;;
13228;SDS011;6680;53.220;10.402;2023-06-26T03:50:15;7.90;;;6.87;;
13228;SDS011;6680;53.220;10.402;2023-06-26T03:52:42;7.63;;;6.90;;
13228;SDS011;6680;53.220;10.402;2023-06-26T03:55:09;8.13;;;7.23;;
13228;SDS011;6680;53.220;10.402;2023-06-26T03:57:36;9.60;;;6.83;;
13228;SDS011;6680;53.220;10.402;2023-06-26T04:00:04;7.03;;;6.33;;
13228;SDS011;6680;53.220;10.402;2023-06-26T04:02:33;7.80;;;6.27;;
13228;SDS011;6680;53.220;10.402;2023-06-26T04:05:00;8.50;;;6.77;;
13228;SDS011;6680;53.220;10.402;2023-06-26T04:07:28;7.47;;;6.77;;
13228;SDS011;6680;53.220;10.402;2023-06-26T04:09:56;7.13;;;6.43;;
13228;SDS011;6680;53.220;10.402;2023-06-26T04:12:22;7.47;;;6.77;;
13228;SDS011;6680;53.220;10.402;2023-06-26T04:14:49;7.37;;;6.67;;
13228;SDS011;6680;53.220;10.402;2023-06-26T04:17:17;8.43;;;6.73;;
13228;SDS011;6680;53.220;10.402;2023-06-26T04:19:44;6.53;;;5.93;;
13228;SDS011;6680;53.220;10.402;2023-06-26T04:22:11;7.23;;;5.73;;
13228;SDS011;6680;53.220;10.402;2023-06-26T04:24:37;7.10;;;6.40;;
13228;SDS011;6680;53.220;10.402;2023-06-26T04:27:04;7.00;;;6.27;;
13228;SDS011;6680;53.220;10.402;2023-06-26T04:29:31;6.17;;;5.57;;
13228;SDS011;6680;53.220;10.402;2023-06-26T04:31:58;6.83;;;6.23;;
13228;SDS011;6680;53.220;10.402;2023-06-26T04:34:26;7.87;;;6.53;;
13228;SDS011;6680;53.220;10.402;2023-06-26T04:36:57;7.07;;;6.03;;
13228;SDS011;6680;53.220;10.402;2023-06-26T04:39:24;6.60;;;5.90;;
13228;SDS011;6680;53.220;10.402;2023-06-26T04:41:50;6.17;;;5.67;;
13228;SDS011;6680;53.220;10.402;2023-06-26T04:44:17;6.93;;;6.30;;
13228;SDS011;6680;53.220;10.402;2023-06-26T04:46:44;6.47;;;5.77;;
13228;SDS011;6680;53.220;10.402;2023-06-26T04:49:11;7.07;;;6.40;;
13228;SDS011;6680;53.220;10.402;2023-06-26T04:51:39;7.03;;;6.13;;
13228;SDS011;6680;53.220;10.402;2023-06-26T04:54:06;6.30;;;5.70;;
13228;SDS011;6680;53.220;10.402;2023-06-26T04:56:33;6.53;;;5.90;;
13228;SDS011;6680;53.220;10.402;2023-06-26T04:59:00;6.57;;;5.97;;
13228;SDS011;6680;53.220;10.402;2023-06-26T05:01:27;7.07;;;6.37;;
13228;SDS011;6680;53.220;10.402;2023-06-26T05:03:54;9.20;;;6.63;;
13228;SDS011;6680;53.220;10.402;2023-06-26T05:06:21;8.40;;;6.17;;
13228;SDS011;6680;53.220;10.402;2023-06-26T05:08:49;6.50;;;5.73;;
13228;SDS011;6680;53.220;10.402;2023-06-26T05:11:16;6.50;;;5.80;;
13228;SDS011;6680;53.220;10.402;2023-06-26T05:13:43;6.40;;;5.80;;
13228;SDS011;6680;53.220;10.402;2023-06-26T05:16:09;8.07;;;6.07;;
13228;SDS011;6680;53.220;10.402;2023-06-26T05:18:36;6.30;;;5.60;;
13228;SDS011;6680;53.220;10.402;2023-06-26T05:21:03;6.23;;;5.63;;
13228;SDS011;6680;53.220;10.402;2023-06-26T05:23:31;7.97;;;6.17;;
13228;SDS011;6680;53.220;10.402;2023-06-26T05:26:00;8.03;;;5.73;;
13228;SDS011;6680;53.220;10.402;2023-06-26T05:28:28;6.83;;;5.70;;
13228;SDS011;6680;53.220;10.402;2023-06-26T05:30:56;7.23;;;5.87;;
13228;SDS011;6680;53.220;10.402;2023-06-26T05:33:24;6.07;;;5.47;;
13228;SDS011;6680;53.220;10.402;2023-06-26T05:35:52;6.50;;;5.67;;
13228;SDS011;6680;53.220;10.402;2023-06-26T05:38:19;6.17;;;5.10;;
13228;SDS011;6680;53.220;10.402;2023-06-26T05:40:46;6.03;;;4.77;;
13228;SDS011;6680;53.220;10.402;2023-06-26T05:43:15;5.97;;;5.37;;
13228;SDS011;6680;53.220;10.402;2023-06-26T05:45:45;8.90;;;6.10;;
13228;SDS011;6680;53.220;10.402;2023-06-26T05:48:14;5.80;;;5.23;;
13228;SDS011;6680;53.220;10.402;2023-06-26T05:50:42;8.27;;;5.53;;
13228;SDS011;6680;53.220;10.402;2023-06-26T05:53:10;6.50;;;4.63;;
13228;SDS011;6680;53.220;10.402;2023-06-26T05:55:37;5.70;;;5.20;;
13228;SDS011;6680;53.220;10.402;2023-06-26T05:58:06;6.27;;;5.67;;
13228;SDS011;6680;53.220;10.402;2023-06-26T06:00:35;5.80;;;4.77;;
13228;SDS011;6680;53.220;10.402;2023-06-26T06:03:02;6.20;;;5.40;;
13228;SDS011;6680;53.220;10.402;2023-06-26T06:05:29;5.87;;;5.27;;
13228;SDS011;6680;53.220;10.402;2023-06-26T06:07:55;6.87;;;5.90;;
13228;SDS011;6680;53.220;10.402;2023-06-26T06:10:22;7.27;;;5.37;;
13228;SDS011;6680;53.220;10.402;2023-06-26T06:12:49;5.47;;;4.97;;
13228;SDS011;6680;53.220;10.402;2023-06-26T06:15:15;6.13;;;5.27;;
13228;SDS011;6680;53.220;10.402;2023-06-26T06:17:43;6.60;;;5.77;;
13228;SDS011;6680;53.220;10.402;2023-06-26T06:20:10;5.70;;;5.10;;
13228;SDS011;6680;53.220;10.402;2023-06-26T06:22:37;5.60;;;5.00;;
13228;SDS011;6680;53.220;10.402;2023-06-26T06:25:04;7.53;;;5.40;;
13228;SDS011;6680;53.220;10.402;2023-06-26T06:27:31;5.37;;;4.80;;
13228;SDS011;6680;53.220;10.402;2023-06-26T06:29:58;6.17;;;5.40;;
13228;SDS011;6680;53.220;10.402;2023-06-26T06:32:25;9.13;;;4.80;;
13228;SDS011;6680;53.220;10.402;2023-06-26T06:34:52;6.63;;;5.67;;
13228;SDS011;6680;53.220;10.402;2023-06-26T06:37:19;5.77;;;5.17;;
13228;SDS011;6680;53.220;10.402;2023-06-26T06:39:46;8.33;;;5.07;;
13228;SDS011;6680;53.220;10.402;2023-06-26T06:42:12;6.60;;;5.40;;
13228;SDS011;6680;53.220;10.402;2023-06-26T06:44:39;6.50;;;5.70;;
13228;SDS011;6680;53.220;10.402;2023-06-26T06:47:06;5.47;;;4.97;;
13228;SDS011;6680;53.220;10.402;2023-06-26T06:49:33;6.37;;;5.00;;
13228;SDS011;6680;53.220;10.402;2023-06-26T06:52:00;6.23;;;5.63;;
13228;SDS011;6680;53.220;10.402;2023-06-26T06:54:27;7.23;;;4.63;;
13228;SDS011;6680;53.220;10.402;2023-06-26T06:56:54;7.40;;;5.00;;
13228;SDS011;6680;53.220;10.402;2023-06-26T06:59:21;5.00;;;4.43;;
13228;SDS011;6680;53.220;10.402;2023-06-26T07:01:47;7.13;;;5.07;;
13228;SDS011;6680;53.220;10.402;2023-06-26T07:04:14;6.13;;;4.93;;
13228;SDS011;6680;53.220;10.402;2023-06-26T07:06:41;6.83;;;5.03;;
13228;SDS011;6680;53.220;10.402;2023-06-26T07:09:09;6.67;;;5.40;;
13228;SDS011;6680;53.220;10.402;2023-06-26T07:11:35;7.17;;;5.10;;
13228;SDS011;6680;53.220;10.402;2023-06-26T07:14:02;5.80;;;4.97;;
13228;SDS011;6680;53.220;10.402;2023-06-26T07:16:28;5.50;;;4.80;;
13228;SDS011;6680;53.220;10.402;2023-06-26T07:18:55;5.70;;;5.20;;
13228;SDS011;6680;53.220;10.402;2023-06-26T07:21:22;7.77;;;4.87;;
13228;SDS011;6680;53.220;10.402;2023-06-26T07:23:49;5.50;;;4.57;;
13228;SDS011;6680;53.220;10.402;2023-06-26T07:26:17;5.60;;;4.30;;
13228;SDS011;6680;53.220;10.402;2023-06-26T07:28:43;6.80;;;5.50;;
13228;SDS011;6680;53.220;10.402;2023-06-26T07:31:10;6.93;;;4.77;;
13228;SDS011;6680;53.220;10.402;2023-06-26T07:33:37;5.33;;;4.27;;
13228;SDS011;6680;53.220;10.402;2023-06-26T07:36:04;5.90;;;5.30;;
13228;SDS011;6680;53.220;10.402;2023-06-26T07:38:31;5.57;;;4.50;;
13228;SDS011;6680;53.220;10.402;2023-06-26T07:40:57;5.23;;;4.47;;
13228;SDS011;6680;53.220;10.402;2023-06-26T07:43:26;7.13;;;5.07;;
13228;SDS011;6680;53.220;10.402;2023-06-26T07:45:52;5.73;;;5.10;;
13228;SDS011;6680;53.220;10.402;2023-06-26T07:48:19;5.93;;;5.33;;
13228;SDS011;6680;53.220;10.402;2023-06-26T07:50:46;6.50;;;4.90;;
13228;SDS011;6680;53.220;10.402;2023-06-26T07:53:12;5.30;;;4.80;;
13228;SDS011;6680;53.220;10.402;2023-06-26T07:55:39;6.23;;;5.50;;
13228;SDS011;6680;53.220;10.402;2023-06-26T07:58:06;5.80;;;5.20;;
13228;SDS011;6680;53.220;10.402;2023-06-26T08:00:34;6.03;;;5.43;;
13228;SDS011;6680;53.220;10.402;2023-06-26T08:03:01;5.63;;;5.10;;
13228;SDS011;6680;53.220;10.402;2023-06-26T08:05:28;5.63;;;5.13;;
13228;SDS011;6680;53.220;10.402;2023-06-26T08:07:54;5.67;;;4.80;;
13228;SDS011;6680;53.220;10.402;2023-06-26T08:10:21;5.33;;;4.83;;
13228;SDS011;6680;53.220;10.402;2023-06-26T08:12:48;7.83;;;5.33;;
13228;SDS011;6680;53.220;10.402;2023-06-26T08:15:15;5.47;;;4.97;;
13228;SDS011;6680;53.220;10.402;2023-06-26T08:17:44;7.27;;;5.57;;
13228;SDS011;6680;53.220;10.402;2023-06-26T08:20:11;5.23;;;4.43;;
13228;SDS011;6680;53.220;10.402;2023-06-26T08:22:38;7.97;;;5.03;;
13228;SDS011;6680;53.220;10.402;2023-06-26T08:25:05;5.23;;;4.73;;
13228;SDS011;6680;53.220;10.402;2023-06-26T08:27:32;5.17;;;4.67;;
13228;SDS011;6680;53.220;10.402;2023-06-26T08:29:59;5.77;;;5.07;;
13228;SDS011;6680;53.220;10.402;2023-06-26T08:32:25;5.17;;;4.67;;
13228;SDS011;6680;53.220;10.402;2023-06-26T08:34:53;8.17;;;4.73;;
13228;SDS011;6680;53.220;10.402;2023-06-26T08:37:20;6.03;;;4.80;;
13228;SDS011;6680;53.220;10.402;2023-06-26T08:39:47;6.00;;;5.10;;
13228;SDS011;6680;53.220;10.402;2023-06-26T08:42:14;7.00;;;5.27;;
13228;SDS011;6680;53.220;10.402;2023-06-26T08:44:41;6.33;;;5.70;;
13228;SDS011;6680;53.220;10.402;2023-06-26T08:47:08;6.23;;;5.33;;
13228;SDS011;6680;53.220;10.402;2023-06-26T08:49:40;6.70;;;5.80;;
13228;SDS011;6680;53.220;10.402;2023-06-26T08:52:17;5.60;;;5.00;;
13228;SDS011;6680;53.220;10.402;2023-06-26T08:54:49;9.27;;;5.33;;
13228;SDS011;6680;53.220;10.402;2023-06-26T08:57:20;6.57;;;5.53;;
13228;SDS011;6680;53.220;10.402;2023-06-26T08:59:48;6.13;;;5.40;;
13228;SDS011;6680;53.220;10.402;2023-06-26T09:02:15;6.53;;;5.63;;
13228;SDS011;6680;53.220;10.402;2023-06-26T09:04:42;6.37;;;4.93;;
13228;SDS011;6680;53.220;10.402;2023-06-26T09:07:09;5.10;;;4.60;;
13228;SDS011;6680;53.220;10.402;2023-06-26T09:09:37;6.97;;;5.73;;
13228;SDS011;6680;53.220;10.402;2023-06-26T09:12:04;6.60;;;6.00;;
13228;SDS011;6680;53.220;10.402;2023-06-26T09:14:31;6.23;;;5.17;;
13228;SDS011;6680;53.220;10.402;2023-06-26T09:16:58;8.97;;;5.93;;
13228;SDS011;6680;53.220;10.402;2023-06-26T09:19:25;7.20;;;5.67;;
13228;SDS011;6680;53.220;10.402;2023-06-26T09:21:52;6.60;;;5.20;;
13228;SDS011;6680;53.220;10.402;2023-06-26T09:24:20;8.80;;;5.57;;
13228;SDS011;6680;53.220;10.402;2023-06-26T09:26:49;5.67;;;5.07;;
13228;SDS011;6680;53.220;10.402;2023-06-26T09:29:17;7.87;;;5.20;;
13228;SDS011;6680;53.220;10.402;2023-06-26T09:31:45;7.17;;;5.20;;
13228;SDS011;6680;53.220;10.402;2023-06-26T09:34:12;8.03;;;5.33;;
13228;SDS011;6680;53.220;10.402;2023-06-26T09:36:38;6.57;;;5.80;;
13228;SDS011;6680;53.220;10.402;2023-06-26T09:39:10;8.10;;;5.13;;
13228;SDS011;6680;53.220;10.402;2023-06-26T09:41:37;9.00;;;4.97;;
13228;SDS011;6680;53.220;10.402;2023-06-26T09:44:05;5.37;;;4.87;;
13228;SDS011;6680;53.220;10.402;2023-06-26T09:46:33;5.77;;;5.07;;
13228;SDS011;6680;53.220;10.402;2023-06-26T09:49:01;6.67;;;5.70;;
13228;SDS011;6680;53.220;10.402;2023-06-26T09:51:29;6.30;;;5.10;;
13228;SDS011;6680;53.220;10.402;2023-06-26T09:53:57;6.50;;;5.80;;
13228;SDS011;6680;53.220;10.402;2023-06-26T09:56:24;6.27;;;5.50;;
13228;SDS011;6680;53.220;10.402;2023-06-26T09:58:51;9.23;;;6.33;;
13228;SDS011;6680;53.220;10.402;2023-06-26T10:01:21;6.20;;;5.60;;
13228;SDS011;6680;53.220;10.402;2023-06-26T10:03:47;6.63;;;5.93;;
13228;SDS011;6680;53.220;10.402;2023-06-26T10:06:14;8.27;;;6.17;;
13228;SDS011;6680;53.220;10.402;2023-06-26T10:08:45;6.93;;;6.00;;
13228;SDS011;6680;53.220;10.402;2023-06-26T10:11:14;6.87;;;6.23;;
13228;SDS011;6680;53.220;10.402;2023-06-26T10:13:45;7.30;;;5.97;;
13228;SDS011;6680;53.220;10.402;2023-06-26T10:16:16;7.87;;;7.07;;
13228;SDS011;6680;53.220;10.402;2023-06-26T10:18:48;7.30;;;6.50;;
13228;SDS011;6680;53.220;10.402;2023-06-26T10:21:18;7.40;;;6.70;;
13228;SDS011;6680;53.220;10.402;2023-06-26T10:23:48;15.17;;;6.67;;
13228;SDS011;6680;53.220;10.402;2023-06-26T10:26:17;8.07;;;6.90;;
13228;SDS011;6680;53.220;10.402;2023-06-26T10:28:47;8.50;;;7.53;;
13228;SDS011;6680;53.220;10.402;2023-06-26T10:31:17;7.90;;;7.20;;
13228;SDS011;6680;53.220;10.402;2023-06-26T10:33:46;7.80;;;6.67;;
13228;SDS011;6680;53.220;10.402;2023-06-26T10:36:16;9.10;;;8.20;;
13228;SDS011;6680;53.220;10.402;2023-06-26T10:38:50;9.53;;;7.80;;
13228;SDS011;6680;53.220;10.402;2023-06-26T10:41:21;8.40;;;6.97;;
13228;SDS011;6680;53.220;10.402;2023-06-26T10:43:49;8.13;;;7.00;;
13228;SDS011;6680;53.220;10.402;2023-06-26T10:46:18;8.03;;;6.53;;
13228;SDS011;6680;53.220;10.402;2023-06-26T10:48:59;9.67;;;6.37;;
13228;SDS011;6680;53.220;10.402;2023-06-26T10:51:27;10.30;;;5.70;;
13228;SDS011;6680;53.220;10.402;2023-06-26T10:53:54;5.83;;;5.23;;
13228;SDS011;6680;53.220;10.402;2023-06-26T10:56:21;5.03;;;4.30;;
13228;SDS011;6680;53.220;10.402;2023-06-26T10:59:16;4.67;;;3.30;;
13228;SDS011;6680;53.220;10.402;2023-06-26T11:01:44;8.63;;;5.13;;
13228;SDS011;6680;53.220;10.402;2023-06-26T11:04:14;9.30;;;4.37;;
13228;SDS011;6680;53.220;10.402;2023-06-26T11:06:44;7.67;;;4.30;;
13228;SDS011;6680;53.220;10.402;2023-06-26T11:09:14;7.47;;;4.80;;
13228;SDS011;6680;53.220;10.402;2023-06-26T11:11:56;6.33;;;4.60;;
13228;SDS011;6680;53.220;10.402;2023-06-26T11:14:26;5.63;;;4.60;;
13228;SDS011;6680;53.220;10.402;2023-06-26T11:16:54;7.23;;;5.37;;
13228;SDS011;6680;53.220;10.402;2023-06-26T11:19:25;5.50;;;4.77;;
13228;SDS011;6680;53.220;10.402;2023-06-26T11:21:57;9.90;;;5.83;;
13228;SDS011;6680;53.220;10.402;2023-06-26T11:24:25;9.03;;;5.90;;
13228;SDS011;6680;53.220;10.402;2023-06-26T11:26:52;7.63;;;5.53;;
13228;SDS011;6680;53.220;10.402;2023-06-26T11:29:19;10.27;;;5.93;;
13228;SDS011;6680;53.220;10.402;2023-06-26T11:31:46;6.70;;;5.40;;
13228;SDS011;6680;53.220;10.402;2023-06-26T11:34:13;7.33;;;6.10;;
13228;SDS011;6680;53.220;10.402;2023-06-26T11:36:42;9.63;;;7.20;;
13228;SDS011;6680;53.220;10.402;2023-06-26T11:39:11;9.10;;;6.70;;
13228;SDS011;6680;53.220;10.402;2023-06-26T11:41:38;9.90;;;7.00;;
13228;SDS011;6680;53.220;10.402;2023-06-26T11:44:06;10.90;;;6.90;;
13228;SDS011;6680;53.220;10.402;2023-06-26T11:46:34;9.33;;;7.70;;
13228;SDS011;6680;53.220;10.402;2023-06-26T11:49:02;8.03;;;7.20;;
13228;SDS011;6680;53.220;10.402;2023-06-26T11:51:29;8.97;;;7.20;;
13228;SDS011;6680;53.220;10.402;2023-06-26T11:54:00;10.27;;;6.73;;
13228;SDS011;6680;53.220;10.402;2023-06-26T11:56:27;8.20;;;6.87;;
13228;SDS011;6680;53.220;10.402;2023-06-26T11:58:58;8.87;;;7.53;;
13228;SDS011;6680;53.220;10.402;2023-06-26T12:01:26;9.17;;;6.90;;
13228;SDS011;6680;53.220;10.402;2023-06-26T12:03:54;8.73;;;7.30;;
13228;SDS011;6680;53.220;10.402;2023-06-26T12:06:24;12.10;;;7.87;;
13228;SDS011;6680;53.220;10.402;2023-06-26T12:08:51;10.70;;;7.57;;
13228;SDS011;6680;53.220;10.402;2023-06-26T12:11:20;7.53;;;6.60;;
13228;SDS011;6680;53.220;10.402;2023-06-26T12:13:49;8.67;;;6.60;;
13228;SDS011;6680;53.220;10.402;2023-06-26T12:16:16;8.47;;;6.47;;
13228;SDS011;6680;53.220;10.402;2023-06-26T12:18:43;6.37;;;5.60;;
13228;SDS011;6680;53.220;10.402;2023-06-26T12:23:57;5.70;;;4.27;;
13228;SDS011;6680;53.220;10.402;2023-06-26T12:26:26;5.47;;;4.13;;
13228;SDS011;6680;53.220;10.402;2023-06-26T12:28:53;10.50;;;4.43;;
13228;SDS011;6680;53.220;10.402;2023-06-26T12:31:27;9.27;;;4.20;;
13228;SDS011;6680;53.220;10.402;2023-06-26T12:33:53;6.10;;;3.80;;
13228;SDS011;6680;53.220;10.402;2023-06-26T12:36:20;6.73;;;4.20;;
13228;SDS011;6680;53.220;10.402;2023-06-26T12:38:48;5.27;;;4.07;;
13228;SDS011;6680;53.220;10.402;2023-06-26T12:41:14;5.13;;;3.60;;
13228;SDS011;6680;53.220;10.402;2023-06-26T12:43:43;6.80;;;4.30;;
13228;SDS011;6680;53.220;10.402;2023-06-26T12:46:09;6.67;;;4.10;;
13228;SDS011;6680;53.220;10.402;2023-06-26T12:48:37;4.53;;;3.60;;
13228;SDS011;6680;53.220;10.402;2023-06-26T12:51:08;5.00;;;3.37;;
13228;SDS011;6680;53.220;10.402;2023-06-26T12:53:36;3.83;;;3.07;;
13228;SDS011;6680;53.220;10.402;2023-06-26T12:56:04;4.80;;;2.90;;
13228;SDS011;6680;53.220;10.402;2023-06-26T12:58:31;6.83;;;3.10;;
13228;SDS011;6680;53.220;10.402;2023-06-26T13:00:59;3.57;;;2.80;;
13228;SDS011;6680;53.220;10.402;2023-06-26T13:03:26;2.97;;;2.60;;
13228;SDS011;6680;53.220;10.402;2023-06-26T13:05:53;3.40;;;2.73;;
13228;SDS011;6680;53.220;10.402;2023-06-26T13:08:19;5.70;;;2.30;;
13228;SDS011;6680;53.220;10.402;2023-06-26T13:10:46;5.93;;;3.30;;
13228;SDS011;6680;53.220;10.402;2023-06-26T13:13:13;2.73;;;2.27;;
13228;SDS011;6680;53.220;10.402;2023-06-26T13:15:39;5.77;;;3.00;;
13228;SDS011;6680;53.220;10.402;2023-06-26T13:18:07;2.77;;;2.20;;
13228;SDS011;6680;53.220;10.402;2023-06-26T13:20:34;6.00;;;2.57;;
13228;SDS011;6680;53.220;10.402;2023-06-26T13:23:01;3.80;;;2.30;;
13228;SDS011;6680;53.220;10.402;2023-06-26T13:25:27;5.67;;;2.07;;
13228;SDS011;6680;53.220;10.402;2023-06-26T13:27:54;2.60;;;2.40;;
13228;SDS011;6680;53.220;10.402;2023-06-26T13:30:21;2.63;;;2.27;;
13228;SDS011;6680;53.220;10.402;2023-06-26T13:32:47;4.13;;;2.83;;
13228;SDS011;6680;53.220;10.402;2023-06-26T13:35:15;7.17;;;2.50;;
13228;SDS011;6680;53.220;10.402;2023-06-26T13:37:43;3.10;;;2.37;;
13228;SDS011;6680;53.220;10.402;2023-06-26T13:40:10;5.30;;;2.63;;
13228;SDS011;6680;53.220;10.402;2023-06-26T13:42:37;4.03;;;2.07;;
13228;SDS011;6680;53.220;10.402;2023-06-26T13:45:04;3.17;;;2.53;;
13228;SDS011;6680;53.220;10.402;2023-06-26T13:47:32;3.53;;;1.83;;
13228;SDS011;6680;53.220;10.402;2023-06-26T13:49:59;5.00;;;2.30;;
13228;SDS011;6680;53.220;10.402;2023-06-26T13:52:27;4.17;;;2.20;;
13228;SDS011;6680;53.220;10.402;2023-06-26T13:54:54;2.43;;;2.23;;
13228;SDS011;6680;53.220;10.402;2023-06-26T13:57:20;4.57;;;2.60;;
13228;SDS011;6680;53.220;10.402;2023-06-26T13:59:47;4.27;;;2.57;;
13228;SDS011;6680;53.220;10.402;2023-06-26T14:02:14;3.97;;;2.60;;
13228;SDS011;6680;53.220;10.402;2023-06-26T14:04:41;3.77;;;2.63;;
13228;SDS011;6680;53.220;10.402;2023-06-26T14:07:09;4.23;;;2.20;;
13228;SDS011;6680;53.220;10.402;2023-06-26T14:09:37;4.20;;;2.37;;
13228;SDS011;6680;53.220;10.402;2023-06-26T14:12:04;3.17;;;2.40;;
13228;SDS011;6680;53.220;10.402;2023-06-26T14:14:31;3.90;;;2.30;;
13228;SDS011;6680;53.220;10.402;2023-06-26T14:16:58;5.67;;;2.77;;
13228;SDS011;6680;53.220;10.402;2023-06-26T14:19:25;2.77;;;2.30;;
13228;SDS011;6680;53.220;10.402;2023-06-26T14:21:51;3.37;;;2.23;;
13228;SDS011;6680;53.220;10.402;2023-06-26T14:24:18;4.80;;;2.40;;
13228;SDS011;6680;53.220;10.402;2023-06-26T14:26:46;6.17;;;2.23;;
13228;SDS011;6680;53.220;10.402;2023-06-26T14:29:13;5.50;;;2.67;;
13228;SDS011;6680;53.220;10.402;2023-06-26T14:31:42;3.90;;;2.47;;
13228;SDS011;6680;53.220;10.402;2023-06-26T14:34:08;2.20;;;2.07;;
13228;SDS011;6680;53.220;10.402;2023-06-26T14:36:35;5.37;;;2.40;;
13228;SDS011;6680;53.220;10.402;2023-06-26T14:39:02;4.03;;;2.53;;
13228;SDS011;6680;53.220;10.402;2023-06-26T14:41:29;3.30;;;2.17;;
13228;SDS011;6680;53.220;10.402;2023-06-26T14:43:57;4.33;;;2.30;;
13228;SDS011;6680;53.220;10.402;2023-06-26T14:46:24;4.57;;;2.60;;
13228;SDS011;6680;53.220;10.402;2023-06-26T14:48:51;5.37;;;2.50;;
13228;SDS011;6680;53.220;10.402;2023-06-26T14:51:18;4.57;;;2.40;;
13228;SDS011;6680;53.220;10.402;2023-06-26T14:53:44;4.83;;;2.67;;